Time;durP1;ratioP1;P1;durP2;ratioP2;P2;SDS_P1;SDS_P2;PMS_P1;PMS_P2;Temp;Humidity;BMP_temperature;BMP_pressure;BME280_temperature;BME280_humidity;BME280_pressure;Samples;Min_cycle;Max_cycle;Signal;HPM_P1;HPM_P2
2022/09/25 00:01:22;;;;;;;66.40;33.00;;;;;;;11.84;65.37;100524.33;111013;1229;97712;-74
2022/09/25 00:03:48;;;;;;;65.40;33.80;;;;;;;11.80;65.48;100522.94;110952;1229;97578;-76
2022/09/25 00:06:16;;;;;;;65.30;32.10;;;;;;;11.75;65.40;100527.09;110809;1229;140467;-75
2022/09/25 00:08:42;;;;;;;71.90;34.20;;;;;;;11.70;65.57;100524.80;110886;1230;112067;-76
2022/09/25 00:11:16;;;;;;;74.70;34.50;;;;;;;11.67;65.72;100521.03;110808;1229;139871;-75
2022/09/25 00:13:44;;;;;;;70.50;32.70;;;;;;;11.61;65.79;100518.27;110896;1230;108978;-76
2022/09/25 00:16:13;;;;;;;78.50;35.00;;;;;;;11.56;65.83;100516.73;110931;1228;97632;-75
2022/09/25 00:21:28;;;;;;;67.40;33.70;;;;;;;11.46;66.08;100509.01;110900;1229;111778;-77
2022/09/25 00:23:53;;;;;;;69.20;32.90;;;;;;;11.43;66.10;100506.48;110798;1230;139155;-76
2022/09/25 00:26:19;;;;;;;72.50;34.40;;;;;;;11.39;66.03;100503.98;110956;1230;97671;-75
2022/09/25 00:28:44;;;;;;;69.70;32.00;;;;;;;11.33;66.24;100501.73;110861;1230;140127;-75
2022/09/25 00:31:14;;;;;;;66.20;31.40;;;;;;;11.31;66.36;100500.77;110965;1229;97835;-77
2022/09/25 00:33:39;;;;;;;62.40;31.30;;;;;;;11.30;66.35;100504.59;110981;1230;99497;-77
2022/09/25 00:36:08;;;;;;;63.50;31.90;;;;;;;11.28;66.36;100504.70;110843;1228;140267;-75
2022/09/25 00:38:34;;;;;;;65.50;31.70;;;;;;;11.24;66.50;100506.85;110986;1229;97692;-75
2022/09/25 00:41:01;;;;;;;62.40;32.00;;;;;;;11.19;66.54;100506.19;110831;1229;139673;-77
2022/09/25 00:43:40;;;;;;;70.10;32.60;;;;;;;11.13;66.58;100500.23;110931;1230;98272;-75
2022/09/25 00:46:23;;;;;;;70.30;31.40;;;;;;;11.06;66.63;100499.33;110937;1229;100518;-76
2022/09/25 00:48:53;;;;;;;62.70;31.20;;;;;;;11.00;66.88;100493.17;110808;1230;139118;-76
2022/09/25 00:51:27;;;;;;;68.40;32.10;;;;;;;10.96;66.92;100491.58;110929;1230;97765;-76
2022/09/25 00:53:53;;;;;;;64.70;33.10;;;;;;;10.92;67.02;100490.88;110838;1230;138852;-76
2022/09/25 00:56:19;;;;;;;64.00;32.10;;;;;;;10.88;67.15;100486.96;110951;1228;96473;-76
2022/09/25 00:58:44;;;;;;;59.60;30.20;;;;;;;10.87;67.17;100481.79;110880;1229;139089;-75
2022/09/25 01:01:11;;;;;;;66.50;31.40;;;;;;;10.85;67.08;100485.30;110895;1230;97610;-76
2022/09/25 01:03:40;;;;;;;70.30;32.60;;;;;;;10.83;67.14;100485.75;110935;1230;97855;-75
2022/09/25 01:06:05;;;;;;;60.80;31.10;;;;;;;10.80;67.32;100488.23;110862;1228;139391;-77
2022/09/25 01:08:33;;;;;;;73.00;33.10;;;;;;;10.76;67.31;100485.54;111028;1227;97682;-74
2022/09/25 01:10:58;;;;;;;60.80;31.40;;;;;;;10.75;67.47;100485.41;110889;1230;139955;-75
2022/09/25 01:13:24;;;;;;;62.10;31.20;;;;;;;10.73;67.55;100483.86;111018;1230;97746;-77
2022/09/25 01:16:07;;;;;;;64.20;31.20;;;;;;;10.71;67.55;100480.60;110906;1230;97599;-77
2022/09/25 01:18:58;;;;;;;61.10;31.00;;;;;;;10.69;67.68;100479.81;110843;1229;139413;-77
2022/09/25 01:21:49;;;;;;;64.20;31.30;;;;;;;10.68;67.74;100481.46;110942;1230;107709;-75
2022/09/25 01:24:33;;;;;;;;;;;;;;;10.65;67.90;100486.77;110855;1230;140789;-75
2022/09/25 01:27:27;;;;;;;68.10;30.70;;;;;;;10.61;67.90;100483.19;110952;1230;97602;-75
2022/09/25 01:30:01;;;;;;;72.90;33.10;;;;;;;10.58;67.95;100482.81;110794;1230;138868;-75
2022/09/25 01:32:53;;;;;;;64.70;31.80;;;;;;;10.56;68.00;100483.45;110944;1230;98793;-75
2022/09/25 01:35:46;;;;;;;65.40;30.80;;;;;;;10.53;68.07;100486.41;110776;1230;139509;-76
2022/09/25 01:38:15;;;;;;;71.50;33.30;;;;;;;10.48;68.24;100485.95;110936;1230;97737;-77
2022/09/25 01:40:59;;;;;;;63.10;32.60;;;;;;;10.46;68.26;100487.86;110845;1230;139078;-75
2022/09/25 01:43:31;;;;;;;63.30;32.90;;;;;;;10.43;68.37;100489.92;110929;1230;112029;-77
2022/09/25 01:46:00;;;;;;;66.40;32.90;;;;;;;10.41;68.38;100488.02;110891;1230;99976;-77
2022/09/25 01:48:30;;;;;;;65.80;32.80;;;;;;;10.39;68.61;100483.90;110816;1230;139248;-75
2022/09/25 01:51:23;;;;;;;71.00;33.50;;;;;;;10.38;68.52;100483.05;110884;1230;96540;-77
2022/09/25 01:53:57;;;;;;;71.00;32.60;;;;;;;10.37;68.79;100488.29;110841;1230;139390;-76
2022/09/25 01:56:31;;;;;;;68.90;32.90;;;;;;;10.34;68.78;100482.85;110933;1230;111325;-76
2022/09/25 01:59:02;;;;;;;69.00;32.90;;;;;;;10.32;68.80;100487.08;110784;1230;140324;-77
2022/09/25 02:01:34;;;;;;;68.50;32.20;;;;;;;10.29;68.89;100489.90;110904;1230;107763;-77
2022/09/25 02:04:09;;;;;;;67.40;32.30;;;;;;;10.23;68.98;100488.91;110956;1230;97693;-75
2022/09/25 02:06:37;;;;;;;62.30;30.90;;;;;;;10.18;68.95;100489.08;110856;1230;138766;-76
2022/09/25 02:09:08;;;;;;;67.60;32.20;;;;;;;10.16;69.10;100491.52;110990;1229;111396;-77
2022/09/25 02:11:46;;;;;;;62.00;31.30;;;;;;;10.14;69.31;100488.92;110926;1228;139068;-77
2022/09/25 02:14:18;;;;;;;63.30;31.60;;;;;;;10.12;69.29;100490.26;111041;1228;108796;-76
2022/09/25 02:16:50;;;;;;;65.20;31.80;;;;;;;10.12;69.44;100492.06;110787;1229;139472;-76
2022/09/25 02:22:18;;;;;;;81.80;32.70;;;;;;;10.12;69.70;100488.48;110941;1229;110047;-75
2022/09/25 02:24:49;;;;;;;67.20;32.30;;;;;;;10.13;69.74;100487.88;110852;1230;140920;-75
2022/09/25 02:27:17;;;;;;;64.50;30.70;;;;;;;10.12;69.83;100487.55;110986;1229;107499;-76
2022/09/25 02:29:42;;;;;;;66.30;32.50;;;;;;;10.13;69.86;100488.23;110938;1229;138901;-74
2022/09/25 02:32:12;;;;;;;72.90;33.70;;;;;;;10.13;69.92;100485.73;110963;1230;101255;-74
2022/09/25 02:34:37;;;;;;;69.70;31.40;;;;;;;10.13;69.95;100487.90;110864;1230;139727;-75
2022/09/25 02:37:12;;;;;;;64.40;33.00;;;;;;;10.12;69.94;100485.63;110938;1230;97679;-75
2022/09/25 02:39:38;;;;;;;65.40;33.00;;;;;;;10.10;69.94;100486.05;110940;1230;107653;-77
2022/09/25 02:42:13;;;;;;;69.00;32.10;;;;;;;10.08;69.97;100485.23;110845;1230;139593;-76
2022/09/25 02:45:15;;;;;;;70.40;34.60;;;;;;;10.05;70.09;100484.29;110927;1230;97600;-75
2022/09/25 02:47:55;;;;;;;69.50;32.10;;;;;;;10.05;70.27;100482.17;110831;1229;150887;-75
2022/09/25 02:50:45;;;;;;;69.90;32.60;;;;;;;10.03;70.36;100483.48;111019;1228;100722;-75
2022/09/25 02:53:31;;;;;;;60.30;29.40;;;;;;;10.02;70.26;100482.66;110756;1230;139425;-77
2022/09/25 02:56:04;;;;;;;63.70;32.70;;;;;;;10.00;70.36;100483.98;110918;1230;97690;-75
2022/09/25 02:58:40;;;;;;;65.20;31.80;;;;;;;9.98;70.53;100483.90;110933;1230;97625;-76
2022/09/25 03:01:09;;;;;;;63.00;31.10;;;;;;;9.97;70.60;100482.32;110890;1230;111146;-75
2022/09/25 03:03:37;;;;;;;57.90;31.10;;;;;;;9.95;70.62;100482.25;110918;1230;98218;-77
2022/09/25 03:06:03;;;;;;;59.70;30.80;;;;;;;9.93;70.62;100481.09;110732;1230;138828;-75
2022/09/25 03:08:42;;;;;;;62.50;31.00;;;;;;;9.92;70.62;100476.33;110917;1230;97631;-75
2022/09/25 03:11:08;;;;;;;62.70;30.40;;;;;;;9.88;70.70;100471.64;110828;1230;138925;-74
2022/09/25 03:13:35;;;;;;;73.00;31.90;;;;;;;9.88;70.78;100471.11;110935;1230;97602;-76
2022/09/25 03:16:12;;;;;;;63.70;31.20;;;;;;;9.88;70.80;100469.70;110916;1230;97709;-77
2022/09/25 03:18:39;;;;;;;68.50;32.30;;;;;;;9.88;70.88;100468.78;110768;1231;138739;-77
2022/09/25 03:21:05;;;;;;;66.00;32.70;;;;;;;9.88;70.95;100469.34;110982;1230;97612;-75
2022/09/25 03:23:31;;;;;;;63.60;30.70;;;;;;;9.87;71.01;100469.55;110794;1230;138615;-75
2022/09/25 03:25:57;;;;;;;62.70;31.30;;;;;;;9.88;71.10;100466.49;111010;1230;99236;-76
2022/09/25 03:28:22;;;;;;;58.60;30.40;;;;;;;9.89;71.22;100460.05;110942;1230;97869;-76
2022/09/25 03:30:57;;;;;;;62.60;31.50;;;;;;;9.89;71.22;100458.59;110797;1230;139467;-76
2022/09/25 03:33:22;;;;;;;61.80;27.70;;;;;;;9.88;71.17;100454.18;111060;1230;97823;-76
2022/09/25 03:35:47;;;;;;;66.60;29.50;;;;;;;9.86;71.31;100455.52;110830;1230;138710;-77
2022/09/25 03:38:12;;;;;;;63.60;31.50;;;;;;;9.86;71.48;100452.27;111015;1230;97738;-76
2022/09/25 03:40:38;;;;;;;67.10;29.70;;;;;;;9.86;71.54;100454.06;110831;1230;139496;-76
2022/09/25 03:43:04;;;;;;;62.10;30.90;;;;;;;9.88;71.47;100458.27;111015;1230;97726;-75
2022/09/25 03:45:29;;;;;;;63.90;29.70;;;;;;;9.90;71.57;100459.98;110904;1231;99763;-77
2022/09/25 03:47:54;;;;;;;58.00;29.40;;;;;;;9.91;71.70;100457.77;110816;1230;138674;-77
2022/09/25 03:50:20;;;;;;;56.10;28.70;;;;;;;9.93;71.69;100456.08;111036;1230;98074;-75
2022/09/25 03:52:45;;;;;;;57.70;29.10;;;;;;;9.91;71.61;100455.63;110864;1230;139413;-77
2022/09/25 03:55:11;;;;;;;49.10;26.30;;;;;;;9.87;71.64;100456.36;111039;1230;96620;-75
2022/09/25 03:57:38;;;;;;;51.90;27.50;;;;;;;9.84;71.70;100454.35;110933;1230;97702;-75
2022/09/25 04:00:05;;;;;;;53.10;28.20;;;;;;;9.83;71.83;100455.12;110838;1230;138876;-76
2022/09/25 04:02:30;;;;;;;49.20;26.80;;;;;;;9.82;71.89;100455.13;110946;1230;97734;-76
2022/09/25 04:04:55;;;;;;;55.00;25.90;;;;;;;9.84;72.11;100453.48;110899;1230;139939;-78
2022/09/25 04:07:22;;;;;;;51.90;27.20;;;;;;;9.84;71.97;100453.42;110959;1230;98118;-76
2022/09/25 04:09:47;;;;;;;47.20;25.80;;;;;;;9.84;71.96;100453.08;110945;1230;97586;-77
2022/09/25 04:12:13;;;;;;;53.60;26.20;;;;;;;9.80;71.95;100454.35;110896;1230;138633;-76
2022/09/25 04:14:39;;;;;;;48.90;24.70;;;;;;;9.77;71.99;100455.73;110942;1230;97602;-77
2022/09/25 04:17:04;;;;;;;54.30;25.30;;;;;;;9.73;72.14;100450.52;110897;1230;138771;-78
2022/09/25 04:19:29;;;;;;;48.10;25.30;;;;;;;9.72;72.28;100454.67;111051;1230;97567;-76
2022/09/25 04:21:55;;;;;;;49.80;25.10;;;;;;;9.73;72.49;100452.34;110919;1230;98289;-77
2022/09/25 04:27:04;;;;;;;59.80;27.30;;;;;;;9.77;72.42;100454.82;110959;1230;97683;-78
2022/09/25 04:29:31;;;;;;;51.30;26.30;;;;;;;9.76;72.49;100457.19;110832;1230;139138;-77
2022/09/25 04:34:40;;;;;;;52.00;27.20;;;;;;;9.77;72.59;100459.64;110829;1230;139371;-74
2022/09/25 04:37:05;;;;;;;45.60;26.30;;;;;;;9.80;72.83;100466.84;110945;1230;96498;-77
2022/09/25 04:39:30;;;;;;;49.00;26.20;;;;;;;9.86;72.83;100466.95;111032;1230;97845;-76
2022/09/25 04:41:55;;;;;;;59.00;26.80;;;;;;;9.89;72.82;100460.89;110788;1230;138590;-76
2022/09/25 04:44:20;;;;;;;57.40;28.00;;;;;;;9.91;72.81;100464.02;111037;1230;97711;-75
2022/09/25 04:46:46;;;;;;;48.40;25.90;;;;;;;9.90;72.86;100463.71;110795;1230;138955;-77
2022/09/25 04:49:11;;;;;;;49.70;26.90;;;;;;;9.90;72.91;100462.48;111019;1230;97709;-74
2022/09/25 04:51:36;;;;;;;52.80;27.60;;;;;;;9.92;73.01;100461.48;110932;1230;97711;-74
2022/09/25 04:54:02;;;;;;;50.40;26.40;;;;;;;9.94;73.02;100464.60;110820;1230;138909;-75
2022/09/25 04:56:27;;;;;;;51.20;25.40;;;;;;;9.95;73.00;100464.58;111000;1230;97730;-75
2022/09/25 04:58:52;;;;;;;51.00;26.70;;;;;;;9.96;73.14;100462.75;110793;1230;139993;-75
2022/09/25 05:01:19;;;;;;;51.00;26.80;;;;;;;9.98;73.09;100463.52;111010;1230;101453;-76
2022/09/25 05:03:52;;;;;;;47.70;26.60;;;;;;;10.02;73.18;100464.24;110871;1230;109776;-75
2022/09/25 05:06:17;;;;;;;49.40;26.40;;;;;;;10.08;73.29;100463.61;110827;1230;140100;-75
2022/09/25 05:08:42;;;;;;;56.10;27.60;;;;;;;10.11;73.14;100466.38;110874;1230;97596;-76
2022/09/25 05:11:07;;;;;;;53.30;26.60;;;;;;;10.12;73.23;100463.65;110913;1230;139247;-75
2022/09/25 05:13:33;;;;;;;49.00;26.50;;;;;;;10.13;73.21;100465.20;110976;1230;97741;-75
2022/09/25 05:16:01;;;;;;;56.30;27.60;;;;;;;10.16;73.18;100466.52;111056;1230;97621;-77
2022/09/25 05:18:26;;;;;;;49.50;25.60;;;;;;;10.19;73.28;100465.69;110892;1230;139444;-77
2022/09/25 05:20:53;;;;;;;50.40;26.50;;;;;;;10.21;73.31;100466.13;111045;1230;97761;-75
2022/09/25 05:23:18;;;;;;;52.40;26.40;;;;;;;10.21;73.25;100467.73;111014;1230;140333;-77
2022/09/25 05:25:50;;;;;;;55.90;28.80;;;;;;;10.19;73.27;100468.17;111062;1230;106980;-75
2022/09/25 05:28:16;;;;;;;52.50;27.60;;;;;;;10.20;73.34;100470.98;111309;1230;97793;-77
2022/09/25 05:30:42;;;;;;;52.10;27.40;;;;;;;10.25;73.62;100471.67;110928;1230;138842;-74
2022/09/25 05:33:07;;;;;;;49.90;26.90;;;;;;;10.28;73.56;100471.52;111139;1230;97609;-76
2022/09/25 05:35:33;;;;;;;53.50;28.60;;;;;;;10.31;73.54;100472.11;110951;1230;140399;-76
2022/09/25 05:37:58;;;;;;;59.20;31.80;;;;;;;10.33;73.45;100475.42;111089;1230;97683;-77
2022/09/25 05:40:24;;;;;;;54.60;28.40;;;;;;;10.35;73.54;100477.98;111127;1230;98055;-78
2022/09/25 05:42:50;;;;;;;49.00;27.90;;;;;;;10.37;73.54;100479.17;110939;1230;138710;-76
2022/09/25 05:45:17;;;;;;;54.00;30.30;;;;;;;10.37;73.48;100475.19;112306;1230;96947;-76
2022/09/25 05:47:43;;;;;;;54.10;29.20;;;;;;;10.41;73.65;100478.40;112232;1230;138928;-77
2022/09/25 05:50:12;;;;;;;51.70;29.10;;;;;;;10.45;73.69;100477.14;112487;1230;95747;-75
2022/09/25 05:52:37;;;;;;;56.20;29.60;;;;;;;10.50;73.59;100474.77;112310;1230;139747;-75
2022/09/25 05:55:05;;;;;;;58.70;30.10;;;;;;;10.55;73.67;100477.41;111865;1230;96466;-75
2022/09/25 05:57:31;;;;;;;50.30;28.10;;;;;;;10.60;73.77;100475.56;110998;1230;97605;-77
2022/09/25 05:59:57;;;;;;;54.10;29.50;;;;;;;10.65;73.66;100478.92;111010;1230;139260;-75
2022/09/25 06:02:23;;;;;;;57.60;29.60;;;;;;;10.69;73.81;100475.13;111053;1230;100330;-75
2022/09/25 06:04:48;;;;;;;61.50;30.30;;;;;;;10.77;73.74;100474.06;110893;1230;139784;-76
2022/09/25 06:07:13;;;;;;;62.20;31.90;;;;;;;10.83;73.83;100472.54;111030;1230;97719;-77
2022/09/25 06:09:39;;;;;;;50.70;30.30;;;;;;;10.90;73.84;100466.29;110880;1230;97601;-75
2022/09/25 06:12:05;;;;;;;52.40;29.50;;;;;;;10.95;73.78;100470.38;110917;1229;138855;-77
2022/09/25 06:14:30;;;;;;;57.80;30.80;;;;;;;10.98;73.86;100471.80;110974;1230;97599;-75
2022/09/25 06:16:57;;;;;;;62.30;33.50;;;;;;;10.99;73.60;100472.83;110842;1229;140040;-75
2022/09/25 06:19:22;;;;;;;66.80;33.80;;;;;;;10.99;73.71;100474.11;111064;1227;97712;-78
2022/09/25 06:21:47;;;;;;;54.90;32.10;;;;;;;10.98;73.59;100474.66;110944;1230;97714;-79
2022/09/25 06:24:12;;;;;;;56.20;31.50;;;;;;;11.01;73.64;100475.45;110955;1230;139346;-78
2022/09/25 06:26:38;;;;;;;62.70;32.00;;;;;;;11.00;73.65;100470.63;110914;1230;111943;-76
2022/09/25 06:29:04;;;;;;;63.30;32.90;;;;;;;11.02;73.67;100470.38;110840;1229;140226;-75
2022/09/25 06:31:29;;;;;;;60.30;33.30;;;;;;;11.07;73.83;100466.05;111007;1230;97790;-77
2022/09/25 06:33:54;;;;;;;60.50;32.60;;;;;;;11.14;73.78;100459.06;110917;1230;97608;-76
2022/09/25 06:36:19;;;;;;;59.60;32.70;;;;;;;11.17;73.73;100456.05;110858;1229;139011;-76
2022/09/25 06:38:45;;;;;;;62.60;34.50;;;;;;;11.19;73.75;100454.89;111044;1230;97727;-77
2022/09/25 06:41:11;;;;;;;63.10;33.30;;;;;;;11.20;73.57;100457.86;110901;1229;140049;-75
2022/09/25 06:43:36;;;;;;;60.60;32.90;;;;;;;11.22;73.53;100460.45;111043;1229;97583;-74
2022/09/25 06:46:02;;;;;;;64.20;33.70;;;;;;;11.27;73.82;100462.89;110920;1230;97768;-75
2022/09/25 06:48:28;;;;;;;58.30;33.70;;;;;;;11.33;73.80;100463.66;110858;1230;138948;-74
2022/09/25 06:50:55;;;;;;;55.60;31.70;;;;;;;11.44;73.83;100461.70;111027;1229;97615;-71
2022/09/25 06:53:22;;;;;;;56.60;31.80;;;;;;;11.51;73.53;100465.46;110996;1230;139061;-71
2022/09/25 06:55:48;;;;;;;56.10;31.10;;;;;;;11.52;73.50;100463.83;111008;1230;97586;-72
2022/09/25 06:58:20;;;;;;;57.30;31.50;;;;;;;11.59;73.66;100467.03;110982;1230;98115;-72
2022/09/25 07:00:49;;;;;;;51.40;30.80;;;;;;;11.61;73.53;100463.86;110852;1229;139380;-75
2022/09/25 07:06:00;;;;;;;54.50;30.90;;;;;;;11.71;73.33;100457.47;110853;1229;138942;-75
2022/09/25 07:08:25;;;;;;;57.40;30.50;;;;;;;11.76;73.39;100459.02;110999;1230;97791;-74
2022/09/25 07:10:56;;;;;;;53.90;30.20;;;;;;;11.77;73.13;100458.60;110897;1229;139579;-79
2022/09/25 07:13:28;;;;;;;65.50;32.00;;;;;;;11.77;73.14;100457.73;110976;1229;97723;-77
2022/09/25 07:15:56;;;;;;;65.80;33.20;;;;;;;11.80;73.11;100456.15;110965;1229;111871;-77
2022/09/25 07:18:23;;;;;;;53.10;31.40;;;;;;;11.88;73.23;100456.95;110912;1230;139633;-77
2022/09/25 07:20:50;;;;;;;54.80;30.60;;;;;;;11.99;73.17;100457.80;111000;1229;98247;-76
2022/09/25 07:23:17;;;;;;;58.70;33.50;;;;;;;12.09;73.12;100459.27;110805;1230;139286;-79
2022/09/25 07:25:45;;;;;;;72.20;36.80;;;;;;;12.20;73.10;100455.45;111030;1230;97712;-78
2022/09/25 07:28:14;;;;;;;53.80;30.80;;;;;;;12.31;72.88;100455.03;110970;1230;97708;-76
2022/09/25 07:30:41;;;;;;;61.10;33.80;;;;;;;12.38;72.79;100456.11;110882;1229;140006;-77
2022/09/25 07:33:06;;;;;;;71.40;36.30;;;;;;;12.47;72.77;100453.29;110944;1229;98033;-81
2022/09/25 07:35:36;;;;;;;61.60;34.10;;;;;;;12.59;72.72;100455.52;110962;1229;139551;-73
2022/09/25 07:38:02;;;;;;;62.50;34.10;;;;;;;12.74;72.78;100455.06;110986;1230;97622;-74
2022/09/25 07:40:28;;;;;;;53.70;32.90;;;;;;;12.91;72.77;100456.06;111019;1229;96926;-73
2022/09/25 07:43:02;;;;;;;59.00;31.60;;;;;;;13.04;72.58;100457.09;110907;1229;139183;-72
2022/09/25 07:45:28;;;;;;;56.30;31.30;;;;;;;13.15;72.48;100455.41;111056;1229;97746;-73
2022/09/25 07:47:59;;;;;;;52.20;31.50;;;;;;;13.23;72.37;100455.66;110916;1229;139310;-77
2022/09/25 07:50:25;;;;;;;57.20;30.60;;;;;;;13.37;72.30;100451.79;110948;1229;111360;-71
2022/09/25 07:52:52;;;;;;;55.70;30.50;;;;;;;13.49;72.16;100453.95;110773;1230;139625;-72
2022/09/25 07:55:18;;;;;;;51.20;28.80;;;;;;;13.57;71.96;100451.70;110975;1229;96547;-72
2022/09/25 07:57:44;;;;;;;45.80;28.00;;;;;;;13.69;72.02;100453.13;110987;1229;97828;-74
2022/09/25 08:00:10;;;;;;;56.50;28.80;;;;;;;13.78;71.73;100448.88;110838;1230;138934;-72
2022/09/25 08:02:35;;;;;;;49.10;27.20;;;;;;;13.84;71.60;100449.39;110899;1230;97916;-71
2022/09/25 08:05:01;;;;;;;43.10;25.00;;;;;;;13.94;71.55;100448.77;110837;1229;138741;-73
2022/09/25 08:07:27;;;;;;;40.20;22.70;;;;;;;13.99;71.28;100445.80;110943;1229;97862;-72
2022/09/25 08:09:53;;;;;;;39.70;24.80;;;;;;;13.93;70.99;100440.90;110929;1229;97576;-73
2022/09/25 08:12:19;;;;;;;37.40;23.20;;;;;;;13.95;70.83;100439.72;110778;1230;138304;-75
2022/09/25 08:14:44;;;;;;;43.00;23.60;;;;;;;14.08;70.78;100432.16;110799;1230;97673;-71
2022/09/25 08:17:09;;;;;;;44.20;23.50;;;;;;;14.19;70.60;100428.38;110815;1229;138209;-71
2022/09/25 08:19:35;;;;;;;41.80;23.40;;;;;;;14.30;70.41;100429.67;110966;1229;97718;-72
2022/09/25 08:22:00;;;;;;;36.60;20.80;;;;;;;14.36;70.14;100428.95;110906;1229;97624;-73
2022/09/25 08:24:25;;;;;;;43.30;21.80;;;;;;;14.42;69.99;100427.65;110878;1230;139004;-73
2022/09/25 08:26:50;;;;;;;39.20;22.70;;;;;;;14.44;69.75;100427.76;110983;1229;97717;-72
2022/09/25 08:29:17;;;;;;;38.20;22.20;;;;;;;14.46;69.54;100426.17;110805;1230;139606;-73
2022/09/25 08:31:42;;;;;;;48.50;23.60;;;;;;;14.55;69.42;100425.62;110987;1230;97638;-74
2022/09/25 08:34:09;;;;;;;34.40;21.20;;;;;;;14.64;69.30;100426.48;110957;1229;97486;-72
2022/09/25 08:36:34;;;;;;;31.50;19.50;;;;;;;14.67;69.02;100423.77;110760;1230;138249;-70
2022/09/25 08:39:00;;;;;;;33.60;20.00;;;;;;;14.68;68.86;100424.11;110891;1230;97552;-70
2022/09/25 08:41:30;;;;;;;31.50;19.30;;;;;;;14.74;68.82;100426.20;110801;1230;138198;-71
2022/09/25 08:44:33;;;;;;;31.00;19.20;;;;;;;14.83;68.72;100426.13;110861;1230;97612;-72
2022/09/25 08:50:05;;;;;;;28.40;18.10;;;;;;;15.10;68.24;100424.24;110855;1230;100924;-71
2022/09/25 08:52:31;;;;;;;37.00;19.70;;;;;;;15.17;68.35;100422.65;110851;1230;106841;-74
2022/09/25 08:54:57;;;;;;;34.00;16.90;;;;;;;15.22;68.08;100425.19;110725;1229;138468;-75
2022/09/25 08:57:38;;;;;;;25.70;15.80;;;;;;;15.23;67.66;100424.08;110945;1230;98114;-72
2022/09/25 09:00:11;;;;;;;26.50;15.30;;;;;;;15.20;67.56;100426.76;110724;1230;140768;-72
2022/09/25 09:02:45;;;;;;;20.70;14.00;;;;;;;15.23;67.44;100426.90;110865;1230;107714;-72
2022/09/25 09:05:19;;;;;;;21.40;13.00;;;;;;;15.25;67.22;100421.95;110786;1228;139094;-71
2022/09/25 09:07:52;;;;;;;25.30;13.30;;;;;;;15.26;67.00;100421.17;110874;1228;99681;-73
2022/09/25 09:10:35;;;;;;;20.10;13.00;;;;;;;15.26;66.95;100420.80;110882;1229;112191;-74
2022/09/25 09:13:35;;;;;;;19.40;12.60;;;;;;;15.35;66.82;100417.55;110741;1230;139934;-72
2022/09/25 09:16:18;;;;;;;22.00;12.80;;;;;;;15.46;66.63;100409.53;110866;1230;109017;-71
2022/09/25 09:18:43;;;;;;;22.20;13.40;;;;;;;15.53;66.49;100409.80;110734;1230;139044;-73
2022/09/25 09:21:21;;;;;;;20.30;12.80;;;;;;;15.64;66.33;100408.34;110918;1230;96483;-76
2022/09/25 09:24:13;;;;;;;20.00;12.80;;;;;;;15.73;66.11;100405.58;110831;1230;139889;-74
2022/09/25 09:27:30;;;;;;;24.30;14.00;;;;;;;15.80;65.95;100405.10;111014;1230;100094;-76
2022/09/25 09:30:11;;;;;;;20.50;13.80;;;;;;;15.85;65.58;100401.83;110502;1230;140207;-76
2022/09/25 09:33:00;;;;;;;26.40;14.30;;;;;;;15.94;65.52;100398.92;110870;1230;97608;-72
2022/09/25 09:35:47;;;;;;;23.20;13.80;;;;;;;15.93;65.26;100399.66;110834;1230;138324;-75
2022/09/25 09:38:47;;;;;;;24.60;14.20;;;;;;;15.99;65.17;100393.48;110897;1229;111853;-72
2022/09/25 09:41:39;;;;;;;26.80;15.00;;;;;;;16.07;65.10;100392.58;110739;1229;138543;-73
2022/09/25 09:44:23;;;;;;;20.30;12.90;;;;;;;16.13;64.85;100388.91;110999;1228;107222;-72
2022/09/25 09:47:12;;;;;;;24.50;15.00;;;;;;;16.06;64.58;100386.19;110850;1228;139087;-72
2022/09/25 09:49:46;;;;;;;20.60;13.20;;;;;;;16.09;64.53;100390.09;110925;1230;97582;-73
2022/09/25 09:52:32;;;;;;;23.50;14.70;;;;;;;16.11;64.25;100391.38;110890;1230;110961;-73
2022/09/25 09:55:23;;;;;;;21.00;14.50;;;;;;;16.08;63.84;100389.27;110710;1229;142032;-72
2022/09/25 09:57:53;;;;;;;19.90;13.10;;;;;;;16.06;63.64;100387.05;110789;1230;107834;-70
2022/09/25 10:00:21;;;;;;;21.50;14.20;;;;;;;16.04;63.58;100385.76;110689;1230;138355;-72
2022/09/25 10:03:12;;;;;;;21.40;13.20;;;;;;;16.05;63.32;100383.85;110902;1228;99613;-69
2022/09/25 10:05:45;;;;;;;18.30;11.80;;;;;;;16.02;62.92;100383.02;110558;1228;138805;-73
2022/09/25 10:08:12;;;;;;;21.80;13.20;;;;;;;16.05;63.06;100377.77;110937;1230;98737;-73
2022/09/25 10:10:40;;;;;;;20.40;12.40;;;;;;;16.16;62.91;100375.72;110860;1228;97842;-73
2022/09/25 10:13:15;;;;;;;21.50;12.20;;;;;;;16.30;62.97;100367.84;110863;1228;99305;-73
2022/09/25 10:15:59;;;;;;;17.10;11.50;;;;;;;16.42;62.88;100367.70;110825;1230;97777;-81
2022/09/25 10:18:36;;;;;;;16.90;11.50;;;;;;;16.56;62.57;100362.89;110811;1230;139245;-75
2022/09/25 10:21:09;;;;;;;19.00;12.00;;;;;;;16.63;62.45;100358.27;110925;1229;99866;-75
2022/09/25 10:23:39;;;;;;;22.00;12.40;;;;;;;16.77;62.33;100360.66;110767;1229;138092;-81
2022/09/25 10:26:26;;;;;;;20.80;12.20;;;;;;;16.96;62.32;100358.02;110801;1230;97646;-74
2022/09/25 10:28:52;;;;;;;22.60;11.70;;;;;;;17.10;61.97;100356.77;110758;1229;138272;-70
2022/09/25 10:31:20;;;;;;;18.90;12.00;;;;;;;17.15;62.08;100351.48;110892;1230;97772;-71
2022/09/25 10:34:00;;;;;;;18.40;11.10;;;;;;;17.23;61.86;100353.23;111007;1230;98702;-73
2022/09/25 10:36:40;;;;;;;17.70;11.30;;;;;;;17.31;61.46;100352.64;110769;1229;138785;-75
2022/09/25 10:39:24;;;;;;;19.20;11.40;;;;;;;17.42;61.40;100353.80;110933;1229;97707;-76
2022/09/25 10:41:50;;;;;;;15.40;11.30;;;;;;;17.59;61.37;100350.46;110817;1229;138956;-69
2022/09/25 10:44:34;;;;;;;15.20;10.30;;;;;;;17.69;61.16;100345.96;110851;1230;97635;-73
2022/09/25 10:50:25;;;;;;;15.80;10.30;;;;;;;17.92;60.62;100336.58;110936;1230;108962;-74
2022/09/25 10:52:58;;;;;;;16.70;10.20;;;;;;;17.91;60.37;100336.43;110730;1229;140843;-71
2022/09/25 10:55:36;;;;;;;17.30;10.30;;;;;;;18.00;60.46;100334.48;110980;1229;97592;-72
2022/09/25 10:58:19;;;;;;;18.40;10.30;;;;;;;18.21;60.26;100332.38;110905;1229;111804;-70
2022/09/25 11:00:50;;;;;;;14.40;10.00;;;;;;;18.35;59.88;100329.08;110825;1230;139110;-70
2022/09/25 11:03:21;;;;;;;17.50;10.70;;;;;;;18.40;59.77;100322.52;110958;1228;108104;-74
2022/09/25 11:05:52;;;;;;;;;;;;;;;18.56;59.66;100325.20;110851;1229;138892;-73
2022/09/25 11:08:22;;;;;;;15.50;10.00;;;;;;;18.69;59.30;100324.72;110970;1230;97837;-74
2022/09/25 11:10:55;;;;;;;15.90;9.50;;;;;;;18.75;59.01;100327.50;110783;1229;138602;-70
2022/09/25 11:13:27;;;;;;;17.10;10.20;;;;;;;18.70;58.69;100322.22;110869;1230;101466;-76
2022/09/25 11:15:59;;;;;;;13.20;9.70;;;;;;;18.56;58.29;100317.48;110905;1229;108098;-69
2022/09/25 11:18:47;;;;;;;14.40;9.50;;;;;;;18.53;58.34;100313.75;110801;1228;138220;-74
2022/09/25 11:21:29;;;;;;;18.00;8.90;;;;;;;18.51;58.06;100309.48;110989;1230;97734;-74
2022/09/25 11:24:15;;;;;;;13.60;8.70;;;;;;;18.56;57.88;100305.73;110813;1228;138534;-76
2022/09/25 11:26:50;;;;;;;9.90;7.10;;;;;;;18.52;57.46;100306.52;110995;1229;99663;-75
2022/09/25 11:29:29;;;;;;;11.90;7.00;;;;;;;18.49;57.35;100308.58;110841;1230;138296;-80
2022/09/25 11:32:11;;;;;;;10.00;6.70;;;;;;;18.49;57.06;100309.65;110880;1229;97624;-77
2022/09/25 11:34:55;;;;;;;9.70;6.80;;;;;;;18.49;56.86;100308.01;110969;1229;97964;-74
2022/09/25 11:37:30;;;;;;;11.00;5.80;;;;;;;18.53;56.60;100304.08;110948;1230;111484;-82